sensor_id;sensor_type;location;lat;lon;timestamp;pressure;altitude;pressure_sealevel;temperature;humidity
58622;BME280;44389;51.578;5.456;2022-07-23T00:02:17;101752.09;;;13.70;98.52
58622;BME280;44389;51.578;5.456;2022-07-23T00:04:42;101742.47;;;13.65;98.66
58622;BME280;44389;51.578;5.456;2022-07-23T00:07:07;101752.06;;;13.68;98.96
58622;BME280;44389;51.578;5.456;2022-07-23T00:09:33;101758.03;;;13.65;98.75
58622;BME280;44389;51.578;5.456;2022-07-23T00:11:58;101763.16;;;13.64;99.20
58622;BME280;44389;51.578;5.456;2022-07-23T00:14:23;101765.56;;;13.58;99.30
58622;BME280;44389;51.578;5.456;2022-07-23T00:16:49;101758.53;;;13.54;99.27
58622;BME280;44389;51.578;5.456;2022-07-23T00:19:15;101760.03;;;13.47;99.67
58622;BME280;44389;51.578;5.456;2022-07-23T00:21:40;101760.28;;;13.55;100.00
58622;BME280;44389;51.578;5.456;2022-07-23T00:24:06;101756.88;;;13.56;100.00
58622;BME280;44389;51.578;5.456;2022-07-23T00:26:31;101759.63;;;13.62;100.00
58622;BME280;44389;51.578;5.456;2022-07-23T00:28:56;101761.09;;;13.54;100.00
58622;BME280;44389;51.578;5.456;2022-07-23T00:31:22;101752.16;;;13.44;99.85
58622;BME280;44389;51.578;5.456;2022-07-23T00:33:47;101747.44;;;13.32;99.96
58622;BME280;44389;51.578;5.456;2022-07-23T00:36:12;101748.00;;;13.23;100.00
58622;BME280;44389;51.578;5.456;2022-07-23T00:38:38;101746.06;;;13.16;100.00
58622;BME280;44389;51.578;5.456;2022-07-23T00:41:03;101745.81;;;13.08;100.00
58622;BME280;44389;51.578;5.456;2022-07-23T00:43:28;101741.19;;;12.99;100.00
58622;BME280;44389;51.578;5.456;2022-07-23T00:45:54;101748.69;;;12.92;100.00
58622;BME280;44389;51.578;5.456;2022-07-23T00:48:19;101748.41;;;12.84;100.00
58622;BME280;44389;51.578;5.456;2022-07-23T00:50:44;101748.31;;;12.81;100.00
58622;BME280;44389;51.578;5.456;2022-07-23T00:53:10;101750.97;;;12.82;100.00
58622;BME280;44389;51.578;5.456;2022-07-23T00:55:36;101756.00;;;12.79;100.00
58622;BME280;44389;51.578;5.456;2022-07-23T00:58:01;101750.97;;;12.82;100.00
58622;BME280;44389;51.578;5.456;2022-07-23T01:00:27;101751.94;;;12.86;100.00
58622;BME280;44389;51.578;5.456;2022-07-23T01:02:52;101745.00;;;12.85;100.00
58622;BME280;44389;51.578;5.456;2022-07-23T01:05:18;101740.25;;;12.97;100.00
58622;BME280;44389;51.578;5.456;2022-07-23T01:07:47;101735.19;;;13.00;100.00
58622;BME280;44389;51.578;5.456;2022-07-23T01:10:12;101731.78;;;13.01;100.00
58622;BME280;44389;51.578;5.456;2022-07-23T01:13:00;101743.88;;;13.02;100.00
58622;BME280;44389;51.578;5.456;2022-07-23T01:15:26;101738.84;;;13.07;100.00
58622;BME280;44389;51.578;5.456;2022-07-23T01:17:51;101727.16;;;12.93;100.00
58622;BME280;44389;51.578;5.456;2022-07-23T01:20:17;101738.03;;;12.82;100.00
58622;BME280;44389;51.578;5.456;2022-07-23T01:22:43;101737.06;;;12.80;100.00
58622;BME280;44389;51.578;5.456;2022-07-23T01:25:08;101739.53;;;12.76;100.00
58622;BME280;44389;51.578;5.456;2022-07-23T01:27:34;101736.97;;;12.77;100.00
58622;BME280;44389;51.578;5.456;2022-07-23T01:30:00;101736.22;;;12.80;100.00
58622;BME280;44389;51.578;5.456;2022-07-23T01:32:26;101737.81;;;12.76;100.00
58622;BME280;44389;51.578;5.456;2022-07-23T01:34:51;101735.13;;;12.73;100.00
58622;BME280;44389;51.578;5.456;2022-07-23T01:37:16;101734.59;;;12.58;100.00
58622;BME280;44389;51.578;5.456;2022-07-23T01:39:42;101727.50;;;12.54;100.00
58622;BME280;44389;51.578;5.456;2022-07-23T01:42:07;101734.91;;;12.43;100.00
58622;BME280;44389;51.578;5.456;2022-07-23T01:44:32;101732.25;;;12.41;100.00
58622;BME280;44389;51.578;5.456;2022-07-23T01:46:58;101725.22;;;12.37;100.00
58622;BME280;44389;51.578;5.456;2022-07-23T01:49:23;101729.50;;;12.37;100.00
58622;BME280;44389;51.578;5.456;2022-07-23T01:51:48;101744.38;;;12.42;100.00
58622;BME280;44389;51.578;5.456;2022-07-23T01:54:30;101733.25;;;12.45;100.00
58622;BME280;44389;51.578;5.456;2022-07-23T01:56:56;101729.19;;;12.51;100.00
58622;BME280;44389;51.578;5.456;2022-07-23T01:59:22;101729.00;;;12.47;100.00
58622;BME280;44389;51.578;5.456;2022-07-23T02:01:48;101725.44;;;12.43;100.00
58622;BME280;44389;51.578;5.456;2022-07-23T02:04:19;101731.44;;;12.42;100.00
58622;BME280;44389;51.578;5.456;2022-07-23T02:06:44;101730.06;;;12.28;100.00
58622;BME280;44389;51.578;5.456;2022-07-23T02:09:10;101727.41;;;12.26;100.00
58622;BME280;44389;51.578;5.456;2022-07-23T02:11:35;101722.81;;;12.17;100.00
58622;BME280;44389;51.578;5.456;2022-07-23T02:14:00;101720.69;;;12.07;100.00
58622;BME280;44389;51.578;5.456;2022-07-23T02:16:26;101719.16;;;12.12;100.00
58622;BME280;44389;51.578;5.456;2022-07-23T02:18:51;101710.66;;;12.15;100.00
58622;BME280;44389;51.578;5.456;2022-07-23T02:21:16;101721.91;;;12.17;100.00
58622;BME280;44389;51.578;5.456;2022-07-23T02:23:41;101719.16;;;12.12;100.00
58622;BME280;44389;51.578;5.456;2022-07-23T02:26:07;101718.69;;;12.00;100.00
58622;BME280;44389;51.578;5.456;2022-07-23T02:28:32;101714.78;;;11.89;100.00
58622;BME280;44389;51.578;5.456;2022-07-23T02:30:57;101720.41;;;11.78;100.00
58622;BME280;44389;51.578;5.456;2022-07-23T02:33:22;101717.88;;;11.80;100.00
58622;BME280;44389;51.578;5.456;2022-07-23T02:35:48;101723.59;;;11.71;100.00
58622;BME280;44389;51.578;5.456;2022-07-23T02:38:13;101719.41;;;11.75;100.00
58622;BME280;44389;51.578;5.456;2022-07-23T02:40:38;101724.16;;;11.64;100.00
58622;BME280;44389;51.578;5.456;2022-07-23T02:43:03;101714.25;;;11.52;100.00
58622;BME280;44389;51.578;5.456;2022-07-23T02:45:29;101717.28;;;11.42;100.00
58622;BME280;44389;51.578;5.456;2022-07-23T02:47:54;101729.88;;;11.34;100.00
58622;BME280;44389;51.578;5.456;2022-07-23T02:50:19;101734.38;;;11.40;100.00
58622;BME280;44389;51.578;5.456;2022-07-23T02:52:45;101732.63;;;11.39;100.00
58622;BME280;44389;51.578;5.456;2022-07-23T02:55:10;101735.97;;;11.36;100.00
58622;BME280;44389;51.578;5.456;2022-07-23T02:57:36;101730.88;;;11.38;100.00
58622;BME280;44389;51.578;5.456;2022-07-23T03:00:03;101726.47;;;11.35;100.00
58622;BME280;44389;51.578;5.456;2022-07-23T03:02:28;101731.50;;;11.32;100.00
58622;BME280;44389;51.578;5.456;2022-07-23T03:04:53;101741.00;;;11.33;100.00
58622;BME280;44389;51.578;5.456;2022-07-23T03:07:19;101732.31;;;11.31;100.00
58622;BME280;44389;51.578;5.456;2022-07-23T03:09:44;101742.31;;;11.23;100.00
58622;BME280;44389;51.578;5.456;2022-07-23T03:12:09;101740.50;;;11.20;100.00
58622;BME280;44389;51.578;5.456;2022-07-23T03:14:35;101741.97;;;11.35;100.00
58622;BME280;44389;51.578;5.456;2022-07-23T03:17:00;101747.41;;;11.22;100.00
58622;BME280;44389;51.578;5.456;2022-07-23T03:19:26;101740.38;;;11.17;100.00
58622;BME280;44389;51.578;5.456;2022-07-23T03:21:51;101734.41;;;11.18;100.00
58622;BME280;44389;51.578;5.456;2022-07-23T03:24:17;101738.34;;;11.10;100.00
58622;BME280;44389;51.578;5.456;2022-07-23T03:26:45;101737.03;;;10.99;100.00
58622;BME280;44389;51.578;5.456;2022-07-23T03:29:10;101740.97;;;10.91;100.00
58622;BME280;44389;51.578;5.456;2022-07-23T03:31:36;101746.13;;;10.91;100.00
58622;BME280;44389;51.578;5.456;2022-07-23T03:34:01;101740.22;;;10.93;100.00
58622;BME280;44389;51.578;5.456;2022-07-23T03:36:26;101741.50;;;11.03;100.00
58622;BME280;44389;51.578;5.456;2022-07-23T03:38:52;101745.00;;;11.05;100.00
58622;BME280;44389;51.578;5.456;2022-07-23T03:41:18;101745.84;;;11.04;100.00
58622;BME280;44389;51.578;5.456;2022-07-23T03:43:43;101741.63;;;11.06;100.00
58622;BME280;44389;51.578;5.456;2022-07-23T03:46:09;101744.56;;;11.15;100.00
58622;BME280;44389;51.578;5.456;2022-07-23T03:48:34;101744.72;;;11.18;100.00
58622;BME280;44389;51.578;5.456;2022-07-23T03:51:00;101749.88;;;11.18;100.00
58622;BME280;44389;51.578;5.456;2022-07-23T03:53:25;101743.72;;;11.15;100.00
58622;BME280;44389;51.578;5.456;2022-07-23T03:55:50;101747.31;;;11.18;100.00
58622;BME280;44389;51.578;5.456;2022-07-23T03:58:16;101740.94;;;11.10;100.00
58622;BME280;44389;51.578;5.456;2022-07-23T04:00:41;101737.25;;;11.25;100.00
58622;BME280;44389;51.578;5.456;2022-07-23T04:03:06;101744.97;;;11.25;100.00
58622;BME280;44389;51.578;5.456;2022-07-23T04:05:31;101743.06;;;11.20;100.00
58622;BME280;44389;51.578;5.456;2022-07-23T04:07:57;101753.38;;;11.20;100.00
58622;BME280;44389;51.578;5.456;2022-07-23T04:10:22;101749.56;;;11.32;100.00
58622;BME280;44389;51.578;5.456;2022-07-23T04:12:47;101754.88;;;11.35;100.00
58622;BME280;44389;51.578;5.456;2022-07-23T04:15:13;101755.78;;;11.37;100.00
58622;BME280;44389;51.578;5.456;2022-07-23T04:17:38;101758.97;;;11.30;100.00
58622;BME280;44389;51.578;5.456;2022-07-23T04:20:03;101760.53;;;11.26;100.00
58622;BME280;44389;51.578;5.456;2022-07-23T04:22:29;101763.72;;;11.20;100.00
58622;BME280;44389;51.578;5.456;2022-07-23T04:24:55;101768.88;;;11.20;100.00
58622;BME280;44389;51.578;5.456;2022-07-23T04:27:20;101763.84;;;11.24;100.00
58622;BME280;44389;51.578;5.456;2022-07-23T04:29:45;101762.34;;;11.29;100.00
58622;BME280;44389;51.578;5.456;2022-07-23T04:32:11;101760.59;;;11.28;100.00
58622;BME280;44389;51.578;5.456;2022-07-23T04:34:36;101767.78;;;11.35;100.00
58622;BME280;44389;51.578;5.456;2022-07-23T04:37:01;101773.03;;;11.38;100.00
58622;BME280;44389;51.578;5.456;2022-07-23T04:39:26;101777.81;;;11.50;100.00
58622;BME280;44389;51.578;5.456;2022-07-23T04:41:52;101771.91;;;11.52;100.00
58622;BME280;44389;51.578;5.456;2022-07-23T04:44:17;101777.28;;;11.57;100.00
58622;BME280;44389;51.578;5.456;2022-07-23T04:46:42;101779.16;;;11.61;100.00
58622;BME280;44389;51.578;5.456;2022-07-23T04:49:07;101781.22;;;11.70;100.00
58622;BME280;44389;51.578;5.456;2022-07-23T04:51:33;101789.91;;;11.72;100.00
58622;BME280;44389;51.578;5.456;2022-07-23T04:53:58;101781.59;;;11.79;100.00
58622;BME280;44389;51.578;5.456;2022-07-23T04:56:23;101788.16;;;11.94;100.00
58622;BME280;44389;51.578;5.456;2022-07-23T04:58:49;101789.16;;;11.96;100.00
58622;BME280;44389;51.578;5.456;2022-07-23T05:01:14;101787.56;;;11.99;100.00
58622;BME280;44389;51.578;5.456;2022-07-23T05:03:39;101782.47;;;12.01;100.00
58622;BME280;44389;51.578;5.456;2022-07-23T05:06:04;101786.97;;;12.07;100.00
58622;BME280;44389;51.578;5.456;2022-07-23T05:08:30;101796.69;;;12.12;100.00
58622;BME280;44389;51.578;5.456;2022-07-23T05:10:55;101795.16;;;12.17;100.00
58622;BME280;44389;51.578;5.456;2022-07-23T05:13:20;101793.50;;;12.19;100.00
58622;BME280;44389;51.578;5.456;2022-07-23T05:15:46;101796.22;;;12.23;100.00
58622;BME280;44389;51.578;5.456;2022-07-23T05:18:12;101798.13;;;12.28;100.00
58622;BME280;44389;51.578;5.456;2022-07-23T05:20:37;101793.13;;;12.33;100.00
58622;BME280;44389;51.578;5.456;2022-07-23T05:23:03;101799.28;;;12.37;100.00
58622;BME280;44389;51.578;5.456;2022-07-23T05:25:28;101796.94;;;12.43;100.00
58622;BME280;44389;51.578;5.456;2022-07-23T05:27:54;101801.44;;;12.48;100.00
58622;BME280;44389;51.578;5.456;2022-07-23T05:30:19;101799.06;;;12.53;100.00
58622;BME280;44389;51.578;5.456;2022-07-23T05:32:44;101799.16;;;12.56;100.00
58622;BME280;44389;51.578;5.456;2022-07-23T05:35:10;101801.09;;;12.62;100.00
58622;BME280;44389;51.578;5.456;2022-07-23T05:37:35;101800.59;;;12.72;100.00
58622;BME280;44389;51.578;5.456;2022-07-23T05:40:02;101805.16;;;12.79;100.00
58622;BME280;44389;51.578;5.456;2022-07-23T05:42:28;101808.00;;;12.87;100.00
58622;BME280;44389;51.578;5.456;2022-07-23T05:44:53;101805.66;;;12.93;100.00
58622;BME280;44389;51.578;5.456;2022-07-23T05:47:18;101808.41;;;12.98;100.00
58622;BME280;44389;51.578;5.456;2022-07-23T05:49:44;101807.69;;;13.02;100.00
58622;BME280;44389;51.578;5.456;2022-07-23T05:52:09;101813.09;;;13.08;100.00
58622;BME280;44389;51.578;5.456;2022-07-23T05:54:35;101821.16;;;13.17;100.00
58622;BME280;44389;51.578;5.456;2022-07-23T05:57:00;101817.06;;;13.24;100.00
58622;BME280;44389;51.578;5.456;2022-07-23T05:59:26;101821.69;;;13.33;100.00
58622;BME280;44389;51.578;5.456;2022-07-23T06:01:51;101824.56;;;13.41;100.00
58622;BME280;44389;51.578;5.456;2022-07-23T06:04:16;101826.56;;;13.48;100.00
58622;BME280;44389;51.578;5.456;2022-07-23T06:06:41;101830.25;;;13.56;100.00
58622;BME280;44389;51.578;5.456;2022-07-23T06:09:07;101829.41;;;13.56;100.00
58622;BME280;44389;51.578;5.456;2022-07-23T06:11:32;101833.19;;;13.67;100.00
58622;BME280;44389;51.578;5.456;2022-07-23T06:13:58;101832.56;;;13.74;100.00
58622;BME280;44389;51.578;5.456;2022-07-23T06:16:23;101837.97;;;13.80;100.00
58622;BME280;44389;51.578;5.456;2022-07-23T06:18:48;101834.84;;;13.91;100.00
58622;BME280;44389;51.578;5.456;2022-07-23T06:21:14;101829.88;;;13.98;100.00
58622;BME280;44389;51.578;5.456;2022-07-23T06:23:39;101843.13;;;14.08;100.00
58622;BME280;44389;51.578;5.456;2022-07-23T06:26:04;101833.53;;;14.05;100.00
58622;BME280;44389;51.578;5.456;2022-07-23T06:28:30;101838.19;;;14.15;100.00
58622;BME280;44389;51.578;5.456;2022-07-23T06:30:55;101843.56;;;14.22;100.00
58622;BME280;44389;51.578;5.456;2022-07-23T06:33:20;101835.13;;;14.29;100.00
58622;BME280;44389;51.578;5.456;2022-07-23T06:35:45;101845.03;;;14.42;100.00
58622;BME280;44389;51.578;5.456;2022-07-23T06:38:11;101839.19;;;14.49;100.00
58622;BME280;44389;51.578;5.456;2022-07-23T06:40:36;101834.09;;;14.53;100.00
58622;BME280;44389;51.578;5.456;2022-07-23T06:43:02;101838.63;;;14.60;100.00
58622;BME280;44389;51.578;5.456;2022-07-23T06:45:27;101836.25;;;14.66;100.00
58622;BME280;44389;51.578;5.456;2022-07-23T06:47:52;101844.38;;;14.78;100.00
58622;BME280;44389;51.578;5.456;2022-07-23T06:50:18;101840.19;;;14.84;100.00
58622;BME280;44389;51.578;5.456;2022-07-23T06:52:43;101838.88;;;14.98;100.00
58622;BME280;44389;51.578;5.456;2022-07-23T06:55:09;101838.97;;;15.03;100.00
58622;BME280;44389;51.578;5.456;2022-07-23T06:57:34;101845.16;;;15.08;100.00
58622;BME280;44389;51.578;5.456;2022-07-23T06:59:59;101848.09;;;15.20;100.00
58622;BME280;44389;51.578;5.456;2022-07-23T07:02:25;101832.78;;;15.31;100.00
58622;BME280;44389;51.578;5.456;2022-07-23T07:04:50;101849.53;;;15.42;100.00
58622;BME280;44389;51.578;5.456;2022-07-23T07:07:15;101854.88;;;15.47;98.43
58622;BME280;44389;51.578;5.456;2022-07-23T07:09:40;101845.56;;;15.57;100.00
58622;BME280;44389;51.578;5.456;2022-07-23T07:12:06;101840.69;;;15.69;97.66
58622;BME280;44389;51.578;5.456;2022-07-23T07:14:31;101848.81;;;15.82;99.28
58622;BME280;44389;51.578;5.456;2022-07-23T07:16:57;101844.53;;;15.84;96.39
58622;BME280;44389;51.578;5.456;2022-07-23T07:19:22;101845.75;;;16.00;91.85
58622;BME280;44389;51.578;5.456;2022-07-23T07:21:47;101840.88;;;16.13;94.46
58622;BME280;44389;51.578;5.456;2022-07-23T07:24:12;101835.03;;;16.24;94.16
58622;BME280;44389;51.578;5.456;2022-07-23T07:26:38;101833.41;;;16.29;91.18
58622;BME280;44389;51.578;5.456;2022-07-23T07:29:04;101845.75;;;16.38;90.53
58622;BME280;44389;51.578;5.456;2022-07-23T07:31:30;101849.44;;;16.48;88.11
58622;BME280;44389;51.578;5.456;2022-07-23T07:33:55;101848.81;;;16.59;85.94
58622;BME280;44389;51.578;5.456;2022-07-23T07:36:22;101855.19;;;16.75;81.72
58622;BME280;44389;51.578;5.456;2022-07-23T07:38:47;101857.97;;;16.85;84.41
58622;BME280;44389;51.578;5.456;2022-07-23T07:41:12;101854.66;;;16.90;82.69
58622;BME280;44389;51.578;5.456;2022-07-23T07:43:38;101858.41;;;17.05;83.28
58622;BME280;44389;51.578;5.456;2022-07-23T07:46:03;101854.28;;;17.16;81.88
58622;BME280;44389;51.578;5.456;2022-07-23T07:48:29;101855.25;;;17.23;81.41
58622;BME280;44389;51.578;5.456;2022-07-23T07:50:54;101858.81;;;17.26;79.80
58622;BME280;44389;51.578;5.456;2022-07-23T07:53:20;101856.34;;;17.34;79.70
58622;BME280;44389;51.578;5.456;2022-07-23T07:55:45;101848.69;;;17.45;79.65
58622;BME280;44389;51.578;5.456;2022-07-23T07:58:11;101851.44;;;17.53;77.07
58622;BME280;44389;51.578;5.456;2022-07-23T08:00:36;101846.34;;;17.59;75.64
58622;BME280;44389;51.578;5.456;2022-07-23T08:03:01;101854.53;;;17.84;79.16
58622;BME280;44389;51.578;5.456;2022-07-23T08:05:28;101860.72;;;17.89;76.35
58622;BME280;44389;51.578;5.456;2022-07-23T08:07:56;101863.50;;;18.00;73.90
58622;BME280;44389;51.578;5.456;2022-07-23T08:10:21;101856.72;;;18.13;73.13
58622;BME280;44389;51.578;5.456;2022-07-23T08:12:48;101870.78;;;18.19;71.95
58622;BME280;44389;51.578;5.456;2022-07-23T08:15:16;101864.56;;;18.13;69.84
58622;BME280;44389;51.578;5.456;2022-07-23T08:17:43;101871.53;;;18.14;71.27
58622;BME280;44389;51.578;5.456;2022-07-23T08:20:10;101875.31;;;18.34;74.58
58622;BME280;44389;51.578;5.456;2022-07-23T08:22:42;101873.72;;;18.44;74.33
58622;BME280;44389;51.578;5.456;2022-07-23T08:25:08;101875.59;;;18.53;72.43
58622;BME280;44389;51.578;5.456;2022-07-23T08:27:34;101880.84;;;18.59;73.44
58622;BME280;44389;51.578;5.456;2022-07-23T08:29:59;101874.94;;;18.71;73.82
58622;BME280;44389;51.578;5.456;2022-07-23T08:32:24;101887.16;;;18.75;71.02
58622;BME280;44389;51.578;5.456;2022-07-23T08:34:50;101880.41;;;18.91;71.26
58622;BME280;44389;51.578;5.456;2022-07-23T08:37:15;101884.81;;;18.95;68.21
58622;BME280;44389;51.578;5.456;2022-07-23T08:39:40;101878.13;;;19.19;70.33
58622;BME280;44389;51.578;5.456;2022-07-23T08:42:06;101893.03;;;19.29;71.30
58622;BME280;44389;51.578;5.456;2022-07-23T08:44:33;101900.81;;;19.23;69.26
58622;BME280;44389;51.578;5.456;2022-07-23T08:47:00;101899.91;;;19.21;67.06
58622;BME280;44389;51.578;5.456;2022-07-23T08:49:26;101899.13;;;19.31;69.83
58622;BME280;44389;51.578;5.456;2022-07-23T08:51:51;101899.19;;;19.34;67.77
58622;BME280;44389;51.578;5.456;2022-07-23T08:54:17;101906.34;;;19.57;67.86
58622;BME280;44389;51.578;5.456;2022-07-23T08:56:43;101898.66;;;19.74;69.37
58622;BME280;44389;51.578;5.456;2022-07-23T08:59:08;101901.47;;;19.93;66.98
58622;BME280;44389;51.578;5.456;2022-07-23T09:01:33;101894.47;;;19.95;67.04
58622;BME280;44389;51.578;5.456;2022-07-23T09:03:59;101892.81;;;20.07;66.01
58622;BME280;44389;51.578;5.456;2022-07-23T09:06:24;101897.22;;;20.10;65.33
58622;BME280;44389;51.578;5.456;2022-07-23T09:08:49;101892.97;;;20.25;66.56
58622;BME280;44389;51.578;5.456;2022-07-23T09:11:18;101894.81;;;20.43;67.60
58622;BME280;44389;51.578;5.456;2022-07-23T09:13:53;101892.22;;;20.55;66.95
58622;BME280;44389;51.578;5.456;2022-07-23T09:16:24;101901.81;;;20.50;62.99
58622;BME280;44389;51.578;5.456;2022-07-23T09:18:53;101893.16;;;20.69;63.93
58622;BME280;44389;51.578;5.456;2022-07-23T09:21:34;101890.63;;;20.74;63.88
58622;BME280;44389;51.578;5.456;2022-07-23T09:24:05;101877.59;;;20.97;65.18
58622;BME280;44389;51.578;5.456;2022-07-23T09:26:46;101870.63;;;21.10;64.23
58622;BME280;44389;51.578;5.456;2022-07-23T09:34:24;101872.41;;;21.37;62.32
58622;BME280;44389;51.578;5.456;2022-07-23T09:36:56;101875.91;;;21.52;62.90
58622;BME280;44389;51.578;5.456;2022-07-23T09:39:28;101883.84;;;21.78;60.99
58622;BME280;44389;51.578;5.456;2022-07-23T09:41:54;101879.44;;;21.73;59.62
58622;BME280;44389;51.578;5.456;2022-07-23T09:44:20;101889.03;;;22.06;61.00
58622;BME280;44389;51.578;5.456;2022-07-23T09:46:50;101891.66;;;22.25;58.75
58622;BME280;44389;51.578;5.456;2022-07-23T09:49:22;101889.88;;;22.28;56.64
58622;BME280;44389;51.578;5.456;2022-07-23T09:51:52;101893.34;;;22.46;58.86
58622;BME280;44389;51.578;5.456;2022-07-23T09:54:27;101889.69;;;22.87;57.74
58622;BME280;44389;51.578;5.456;2022-07-23T09:56:55;101882.47;;;23.29;56.83
58622;BME280;44389;51.578;5.456;2022-07-23T09:59:26;101896.13;;;23.75;54.43
58622;BME280;44389;51.578;5.456;2022-07-23T10:01:56;101891.31;;;24.25;52.80
58622;BME280;44389;51.578;5.456;2022-07-23T10:04:24;101890.06;;;24.55;51.72
58622;BME280;44389;51.578;5.456;2022-07-23T10:06:55;101885.88;;;25.09;51.16
58622;BME280;44389;51.578;5.456;2022-07-23T10:09:28;101889.41;;;25.05;50.50
58622;BME280;44389;51.578;5.456;2022-07-23T10:11:56;101893.34;;;25.40;47.62
58622;BME280;44389;51.578;5.456;2022-07-23T10:14:26;101883.00;;;25.79;46.93
58622;BME280;44389;51.578;5.456;2022-07-23T10:16:52;101883.75;;;26.36;45.06
58622;BME280;44389;51.578;5.456;2022-07-23T10:19:18;101885.97;;;26.56;44.42
58622;BME280;44389;51.578;5.456;2022-07-23T10:21:50;101887.56;;;27.05;43.47
58622;BME280;44389;51.578;5.456;2022-07-23T10:27:50;101895.94;;;28.30;45.07
58622;BME280;44389;51.578;5.456;2022-07-23T10:36:29;101896.53;;;29.83;37.97
58622;BME280;44389;51.578;5.456;2022-07-23T10:39:05;101898.16;;;29.87;37.11
58622;BME280;44389;51.578;5.456;2022-07-23T10:41:38;101896.88;;;30.24;36.66
58622;BME280;44389;51.578;5.456;2022-07-23T10:44:10;101893.38;;;29.97;36.14
58622;BME280;44389;51.578;5.456;2022-07-23T10:46:36;101894.91;;;30.77;33.21
58622;BME280;44389;51.578;5.456;2022-07-23T10:52:15;101887.50;;;30.37;36.90
58622;BME280;44389;51.578;5.456;2022-07-23T10:54:42;101889.63;;;30.99;34.20
58622;BME280;44389;51.578;5.456;2022-07-23T10:57:08;101886.91;;;31.65;35.70
58622;BME280;44389;51.578;5.456;2022-07-23T11:02:41;101896.00;;;32.42;33.03
58622;BME280;44389;51.578;5.456;2022-07-23T11:05:12;101894.66;;;32.53;31.35
58622;BME280;44389;51.578;5.456;2022-07-23T11:10:51;101903.09;;;32.81;33.55
58622;BME280;44389;51.578;5.456;2022-07-23T11:13:39;101899.53;;;33.00;33.17
58622;BME280;44389;51.578;5.456;2022-07-23T11:32:06;101874.44;;;34.09;28.58
58622;BME280;44389;51.578;5.456;2022-07-23T11:34:39;101880.47;;;34.46;29.10
58622;BME280;44389;51.578;5.456;2022-07-23T11:37:06;101876.59;;;34.52;27.58
58622;BME280;44389;51.578;5.456;2022-07-23T11:39:33;101871.06;;;34.71;26.96
58622;BME280;44389;51.578;5.456;2022-07-23T11:41:59;101880.75;;;34.74;25.97
58622;BME280;44389;51.578;5.456;2022-07-23T11:44:29;101879.63;;;35.40;30.12
58622;BME280;44389;51.578;5.456;2022-07-23T11:47:03;101876.16;;;34.44;27.10
58622;BME280;44389;51.578;5.456;2022-07-23T11:49:29;101879.66;;;33.95;25.64
58622;BME280;44389;51.578;5.456;2022-07-23T11:52:12;101881.25;;;34.81;27.43
58622;BME280;44389;51.578;5.456;2022-07-23T11:54:51;101883.44;;;34.90;26.90
58622;BME280;44389;51.578;5.456;2022-07-23T11:57:18;101883.44;;;34.90;26.35
58622;BME280;44389;51.578;5.456;2022-07-23T11:59:46;101877.13;;;34.91;24.78
58622;BME280;44389;51.578;5.456;2022-07-23T12:02:12;101880.94;;;34.87;25.05
58622;BME280;44389;51.578;5.456;2022-07-23T12:04:38;101876.59;;;34.68;25.09
58622;BME280;44389;51.578;5.456;2022-07-23T12:07:21;101870.44;;;35.14;23.94
58622;BME280;44389;51.578;5.456;2022-07-23T12:09:47;101873.31;;;35.41;23.52
58622;BME280;44389;51.578;5.456;2022-07-23T12:12:12;101873.50;;;35.38;23.48
58622;BME280;44389;51.578;5.456;2022-07-23T12:17:14;101871.31;;;34.99;26.22
58622;BME280;44389;51.578;5.456;2022-07-23T12:19:40;101866.50;;;34.41;24.59
58622;BME280;44389;51.578;5.456;2022-07-23T12:22:05;101860.09;;;34.60;25.15
58622;BME280;44389;51.578;5.456;2022-07-23T12:24:31;101865.47;;;34.26;25.54
58622;BME280;44389;51.578;5.456;2022-07-23T12:27:12;101858.03;;;34.97;27.43
58622;BME280;44389;51.578;5.456;2022-07-23T12:29:38;101864.75;;;35.04;25.67
58622;BME280;44389;51.578;5.456;2022-07-23T12:32:20;101863.91;;;35.34;27.10
58622;BME280;44389;51.578;5.456;2022-07-23T12:34:48;101861.22;;;35.34;25.34
58622;BME280;44389;51.578;5.456;2022-07-23T12:37:28;101862.22;;;35.48;26.84
58622;BME280;44389;51.578;5.456;2022-07-23T12:39:54;101855.28;;;35.13;26.82
58622;BME280;44389;51.578;5.456;2022-07-23T12:42:19;101850.38;;;35.05;25.59
58622;BME280;44389;51.578;5.456;2022-07-23T12:45:04;101845.22;;;35.63;26.54
58622;BME280;44389;51.578;5.456;2022-07-23T12:47:30;101846.28;;;35.75;24.24
58622;BME280;44389;51.578;5.456;2022-07-23T12:49:55;101844.22;;;36.09;25.05
58622;BME280;44389;51.578;5.456;2022-07-23T12:52:21;101840.44;;;36.40;24.63
58622;BME280;44389;51.578;5.456;2022-07-23T12:54:46;101837.97;;;36.37;24.58
58622;BME280;44389;51.578;5.456;2022-07-23T12:57:11;101840.06;;;36.18;23.25
58622;BME280;44389;51.578;5.456;2022-07-23T12:59:37;101844.28;;;36.22;24.31
58622;BME280;44389;51.578;5.456;2022-07-23T13:02:03;101838.06;;;36.07;23.43
58622;BME280;44389;51.578;5.456;2022-07-23T13:04:28;101836.81;;;36.41;24.17
58622;BME280;44389;51.578;5.456;2022-07-23T13:06:57;101841.72;;;36.35;24.39
58622;BME280;44389;51.578;5.456;2022-07-23T13:09:25;101848.72;;;35.94;25.50
58622;BME280;44389;51.578;5.456;2022-07-23T13:11:52;101846.25;;;35.30;24.89
58622;BME280;44389;51.578;5.456;2022-07-23T13:14:18;101843.34;;;35.94;24.85
58622;BME280;44389;51.578;5.456;2022-07-23T13:16:44;101847.47;;;36.70;25.51
58622;BME280;44389;51.578;5.456;2022-07-23T13:19:10;101844.28;;;35.79;24.44
58622;BME280;44389;51.578;5.456;2022-07-23T13:21:35;101844.97;;;35.37;24.88
58622;BME280;44389;51.578;5.456;2022-07-23T13:24:01;101846.41;;;35.13;24.06
58622;BME280;44389;51.578;5.456;2022-07-23T13:26:27;101842.03;;;35.26;24.42